sensor_id;sensor_type;location;lat;lon;timestamp;P1;durP1;ratioP1;P2;durP2;ratioP2
56242;SDS011;42155;53.096;23.226;2022-12-11T00:01:07;40.45;;;13.52;;
56242;SDS011;42155;53.096;23.226;2022-12-11T00:03:11;32.22;;;11.68;;
56242;SDS011;42155;53.096;23.226;2022-12-11T00:05:12;37.00;;;12.88;;
56242;SDS011;42155;53.096;23.226;2022-12-11T00:07:12;33.50;;;12.30;;
56242;SDS011;42155;53.096;23.226;2022-12-11T00:09:13;35.45;;;13.02;;
56242;SDS011;42155;53.096;23.226;2022-12-11T00:11:14;31.65;;;11.63;;
56242;SDS011;42155;53.096;23.226;2022-12-11T00:13:15;39.08;;;12.82;;
56242;SDS011;42155;53.096;23.226;2022-12-11T00:15:16;28.65;;;11.90;;
56242;SDS011;42155;53.096;23.226;2022-12-11T00:17:16;36.22;;;13.13;;
56242;SDS011;42155;53.096;23.226;2022-12-11T00:19:16;35.08;;;12.82;;
56242;SDS011;42155;53.096;23.226;2022-12-11T00:21:17;32.83;;;11.13;;
56242;SDS011;42155;53.096;23.226;2022-12-11T00:23:17;32.13;;;12.13;;
56242;SDS011;42155;53.096;23.226;2022-12-11T00:25:17;35.15;;;13.20;;
56242;SDS011;42155;53.096;23.226;2022-12-11T00:27:18;32.30;;;12.40;;
56242;SDS011;42155;53.096;23.226;2022-12-11T00:29:18;36.08;;;13.80;;
56242;SDS011;42155;53.096;23.226;2022-12-11T00:31:18;37.00;;;12.90;;
56242;SDS011;42155;53.096;23.226;2022-12-11T00:33:19;35.95;;;12.52;;
56242;SDS011;42155;53.096;23.226;2022-12-11T00:35:20;31.52;;;11.30;;
56242;SDS011;42155;53.096;23.226;2022-12-11T00:37:20;35.20;;;13.05;;
56242;SDS011;42155;53.096;23.226;2022-12-11T00:39:20;33.85;;;11.05;;
56242;SDS011;42155;53.096;23.226;2022-12-11T00:41:21;34.65;;;13.23;;
56242;SDS011;42155;53.096;23.226;2022-12-11T00:43:21;33.58;;;12.55;;
56242;SDS011;42155;53.096;23.226;2022-12-11T00:45:21;38.33;;;13.43;;
56242;SDS011;42155;53.096;23.226;2022-12-11T00:47:22;36.92;;;13.80;;
56242;SDS011;42155;53.096;23.226;2022-12-11T00:49:22;38.08;;;14.55;;
56242;SDS011;42155;53.096;23.226;2022-12-11T00:51:22;32.83;;;12.93;;
56242;SDS011;42155;53.096;23.226;2022-12-11T00:53:23;37.67;;;14.35;;
56242;SDS011;42155;53.096;23.226;2022-12-11T00:55:23;36.35;;;13.13;;
56242;SDS011;42155;53.096;23.226;2022-12-11T00:57:23;41.70;;;14.40;;
56242;SDS011;42155;53.096;23.226;2022-12-11T00:59:24;38.70;;;13.15;;
56242;SDS011;42155;53.096;23.226;2022-12-11T01:01:24;38.55;;;13.25;;
56242;SDS011;42155;53.096;23.226;2022-12-11T01:03:25;38.47;;;13.35;;
56242;SDS011;42155;53.096;23.226;2022-12-11T01:05:25;39.05;;;14.05;;
56242;SDS011;42155;53.096;23.226;2022-12-11T01:07:25;35.55;;;13.30;;
56242;SDS011;42155;53.096;23.226;2022-12-11T01:09:26;37.75;;;12.95;;
56242;SDS011;42155;53.096;23.226;2022-12-11T01:11:26;37.50;;;13.82;;
56242;SDS011;42155;53.096;23.226;2022-12-11T01:13:26;30.45;;;11.18;;
56242;SDS011;42155;53.096;23.226;2022-12-11T01:15:31;31.85;;;12.15;;
56242;SDS011;42155;53.096;23.226;2022-12-11T01:17:33;39.97;;;13.50;;
56242;SDS011;42155;53.096;23.226;2022-12-11T01:19:33;42.65;;;14.48;;
56242;SDS011;42155;53.096;23.226;2022-12-11T01:21:33;40.53;;;13.73;;
56242;SDS011;42155;53.096;23.226;2022-12-11T01:23:34;36.10;;;12.52;;
56242;SDS011;42155;53.096;23.226;2022-12-11T01:25:35;44.55;;;15.20;;
56242;SDS011;42155;53.096;23.226;2022-12-11T01:27:36;44.25;;;14.57;;
56242;SDS011;42155;53.096;23.226;2022-12-11T01:29:37;41.75;;;13.48;;
56242;SDS011;42155;53.096;23.226;2022-12-11T01:31:37;44.72;;;15.40;;
56242;SDS011;42155;53.096;23.226;2022-12-11T01:33:38;34.05;;;14.25;;
56242;SDS011;42155;53.096;23.226;2022-12-11T01:35:38;46.78;;;15.02;;
56242;SDS011;42155;53.096;23.226;2022-12-11T01:37:39;46.95;;;15.77;;
56242;SDS011;42155;53.096;23.226;2022-12-11T01:39:39;41.63;;;13.93;;
56242;SDS011;42155;53.096;23.226;2022-12-11T01:41:40;43.28;;;13.82;;
56242;SDS011;42155;53.096;23.226;2022-12-11T01:43:56;44.63;;;13.88;;
56242;SDS011;42155;53.096;23.226;2022-12-11T01:45:58;50.60;;;16.35;;
56242;SDS011;42155;53.096;23.226;2022-12-11T01:50:01;47.55;;;15.82;;
56242;SDS011;42155;53.096;23.226;2022-12-11T01:52:03;46.35;;;15.40;;
56242;SDS011;42155;53.096;23.226;2022-12-11T01:54:11;44.90;;;15.35;;
56242;SDS011;42155;53.096;23.226;2022-12-11T01:56:13;47.67;;;15.48;;
56242;SDS011;42155;53.096;23.226;2022-12-11T01:58:14;47.90;;;15.75;;
56242;SDS011;42155;53.096;23.226;2022-12-11T02:00:16;56.85;;;17.75;;
56242;SDS011;42155;53.096;23.226;2022-12-11T02:02:27;51.80;;;16.30;;
56242;SDS011;42155;53.096;23.226;2022-12-11T02:04:29;49.40;;;16.50;;
56242;SDS011;42155;53.096;23.226;2022-12-11T02:08:34;49.15;;;17.42;;
56242;SDS011;42155;53.096;23.226;2022-12-11T02:13:18;49.50;;;15.63;;
56242;SDS011;42155;53.096;23.226;2022-12-11T02:15:29;43.10;;;14.13;;
56242;SDS011;42155;53.096;23.226;2022-12-11T02:17:41;47.50;;;17.02;;
56242;SDS011;42155;53.096;23.226;2022-12-11T02:19:52;37.08;;;13.15;;
56242;SDS011;42155;53.096;23.226;2022-12-11T02:22:07;49.72;;;15.30;;
56242;SDS011;42155;53.096;23.226;2022-12-11T02:24:22;38.58;;;14.25;;
56242;SDS011;42155;53.096;23.226;2022-12-11T02:26:48;53.53;;;16.92;;
56242;SDS011;42155;53.096;23.226;2022-12-11T02:29:02;58.60;;;16.73;;
56242;SDS011;42155;53.096;23.226;2022-12-11T02:33:33;50.47;;;16.60;;
56242;SDS011;42155;53.096;23.226;2022-12-11T02:35:41;54.42;;;18.38;;
56242;SDS011;42155;53.096;23.226;2022-12-11T02:37:44;43.08;;;13.63;;
56242;SDS011;42155;53.096;23.226;2022-12-11T02:39:46;50.85;;;16.17;;
56242;SDS011;42155;53.096;23.226;2022-12-11T02:41:50;59.72;;;19.50;;
56242;SDS011;42155;53.096;23.226;2022-12-11T02:43:51;63.28;;;18.45;;
56242;SDS011;42155;53.096;23.226;2022-12-11T02:45:55;47.88;;;15.73;;
56242;SDS011;42155;53.096;23.226;2022-12-11T02:47:57;66.03;;;19.17;;
56242;SDS011;42155;53.096;23.226;2022-12-11T02:50:02;57.97;;;19.35;;
56242;SDS011;42155;53.096;23.226;2022-12-11T02:52:09;58.75;;;19.10;;
56242;SDS011;42155;53.096;23.226;2022-12-11T02:54:22;57.75;;;18.20;;
56242;SDS011;42155;53.096;23.226;2022-12-11T02:56:33;45.30;;;16.15;;
56242;SDS011;42155;53.096;23.226;2022-12-11T02:58:41;69.80;;;19.85;;
56242;SDS011;42155;53.096;23.226;2022-12-11T03:00:46;74.68;;;21.75;;
56242;SDS011;42155;53.096;23.226;2022-12-11T03:02:46;71.90;;;20.00;;
56242;SDS011;42155;53.096;23.226;2022-12-11T03:04:48;64.93;;;18.67;;
56242;SDS011;42155;53.096;23.226;2022-12-11T03:06:49;57.33;;;18.55;;
56242;SDS011;42155;53.096;23.226;2022-12-11T03:08:53;56.03;;;17.80;;
56242;SDS011;42155;53.096;23.226;2022-12-11T03:10:53;61.88;;;18.92;;
56242;SDS011;42155;53.096;23.226;2022-12-11T03:12:54;60.63;;;17.33;;
56242;SDS011;42155;53.096;23.226;2022-12-11T03:14:57;62.05;;;19.50;;
56242;SDS011;42155;53.096;23.226;2022-12-11T03:17:21;59.55;;;17.63;;
56242;SDS011;42155;53.096;23.226;2022-12-11T03:21:43;63.20;;;18.30;;
56242;SDS011;42155;53.096;23.226;2022-12-11T03:23:57;50.17;;;15.60;;
56242;SDS011;42155;53.096;23.226;2022-12-11T03:26:12;54.58;;;17.08;;
56242;SDS011;42155;53.096;23.226;2022-12-11T03:28:17;55.47;;;17.15;;
56242;SDS011;42155;53.096;23.226;2022-12-11T03:30:21;59.45;;;16.92;;
56242;SDS011;42155;53.096;23.226;2022-12-11T03:32:25;54.40;;;16.55;;
56242;SDS011;42155;53.096;23.226;2022-12-11T03:34:30;49.17;;;16.73;;
56242;SDS011;42155;53.096;23.226;2022-12-11T03:36:37;48.63;;;16.25;;
56242;SDS011;42155;53.096;23.226;2022-12-11T03:38:40;55.08;;;16.05;;
56242;SDS011;42155;53.096;23.226;2022-12-11T03:40:46;60.78;;;17.42;;
56242;SDS011;42155;53.096;23.226;2022-12-11T03:42:51;46.47;;;13.98;;
56242;SDS011;42155;53.096;23.226;2022-12-11T03:44:53;46.72;;;14.90;;
56242;SDS011;42155;53.096;23.226;2022-12-11T03:46:57;38.85;;;13.10;;
56242;SDS011;42155;53.096;23.226;2022-12-11T03:49:01;40.53;;;14.50;;
56242;SDS011;42155;53.096;23.226;2022-12-11T03:51:06;41.03;;;14.63;;
56242;SDS011;42155;53.096;23.226;2022-12-11T03:53:08;52.92;;;15.50;;
56242;SDS011;42155;53.096;23.226;2022-12-11T03:55:09;32.95;;;12.65;;
56242;SDS011;42155;53.096;23.226;2022-12-11T03:57:13;41.00;;;13.73;;
56242;SDS011;42155;53.096;23.226;2022-12-11T03:59:15;32.47;;;12.23;;
56242;SDS011;42155;53.096;23.226;2022-12-11T04:01:16;29.55;;;12.00;;
56242;SDS011;42155;53.096;23.226;2022-12-11T04:03:16;33.72;;;12.98;;
56242;SDS011;42155;53.096;23.226;2022-12-11T04:05:17;23.92;;;9.60;;
56242;SDS011;42155;53.096;23.226;2022-12-11T04:07:17;27.40;;;10.52;;
56242;SDS011;42155;53.096;23.226;2022-12-11T04:09:17;23.92;;;10.20;;
56242;SDS011;42155;53.096;23.226;2022-12-11T04:11:18;27.35;;;11.05;;
56242;SDS011;42155;53.096;23.226;2022-12-11T04:13:18;26.48;;;11.00;;
56242;SDS011;42155;53.096;23.226;2022-12-11T04:15:18;25.75;;;10.75;;
56242;SDS011;42155;53.096;23.226;2022-12-11T04:17:19;22.65;;;10.77;;
56242;SDS011;42155;53.096;23.226;2022-12-11T04:19:19;27.27;;;10.55;;
56242;SDS011;42155;53.096;23.226;2022-12-11T04:21:21;24.00;;;10.05;;
56242;SDS011;42155;53.096;23.226;2022-12-11T04:23:21;23.60;;;10.02;;
56242;SDS011;42155;53.096;23.226;2022-12-11T04:25:21;24.85;;;10.70;;
56242;SDS011;42155;53.096;23.226;2022-12-11T04:27:22;26.05;;;10.70;;
56242;SDS011;42155;53.096;23.226;2022-12-11T04:29:22;28.60;;;10.68;;
56242;SDS011;42155;53.096;23.226;2022-12-11T04:31:23;22.95;;;10.55;;
56242;SDS011;42155;53.096;23.226;2022-12-11T04:33:23;25.88;;;10.57;;
56242;SDS011;42155;53.096;23.226;2022-12-11T04:35:23;22.92;;;10.88;;
56242;SDS011;42155;53.096;23.226;2022-12-11T04:37:25;23.63;;;10.07;;
56242;SDS011;42155;53.096;23.226;2022-12-11T04:39:26;21.80;;;8.75;;
56242;SDS011;42155;53.096;23.226;2022-12-11T04:41:26;26.17;;;11.13;;
56242;SDS011;42155;53.096;23.226;2022-12-11T04:43:27;28.33;;;11.10;;
56242;SDS011;42155;53.096;23.226;2022-12-11T04:45:27;28.05;;;11.02;;
56242;SDS011;42155;53.096;23.226;2022-12-11T04:47:28;23.60;;;9.93;;
56242;SDS011;42155;53.096;23.226;2022-12-11T04:49:28;24.20;;;9.98;;
56242;SDS011;42155;53.096;23.226;2022-12-11T04:51:29;23.08;;;9.20;;
56242;SDS011;42155;53.096;23.226;2022-12-11T04:53:29;22.75;;;9.38;;
56242;SDS011;42155;53.096;23.226;2022-12-11T04:55:29;28.77;;;10.95;;
56242;SDS011;42155;53.096;23.226;2022-12-11T04:57:30;22.17;;;10.20;;
56242;SDS011;42155;53.096;23.226;2022-12-11T04:59:31;27.90;;;10.27;;
56242;SDS011;42155;53.096;23.226;2022-12-11T05:01:32;25.50;;;9.80;;
56242;SDS011;42155;53.096;23.226;2022-12-11T05:03:32;19.70;;;8.63;;
56242;SDS011;42155;53.096;23.226;2022-12-11T05:05:32;25.38;;;10.30;;
56242;SDS011;42155;53.096;23.226;2022-12-11T05:07:33;23.25;;;10.10;;
56242;SDS011;42155;53.096;23.226;2022-12-11T05:09:34;28.67;;;10.85;;
56242;SDS011;42155;53.096;23.226;2022-12-11T05:11:35;26.45;;;10.75;;
56242;SDS011;42155;53.096;23.226;2022-12-11T05:13:35;24.55;;;10.38;;
56242;SDS011;42155;53.096;23.226;2022-12-11T05:15:38;23.98;;;9.93;;
56242;SDS011;42155;53.096;23.226;2022-12-11T05:17:39;31.38;;;11.82;;
56242;SDS011;42155;53.096;23.226;2022-12-11T05:19:39;29.30;;;12.07;;
56242;SDS011;42155;53.096;23.226;2022-12-11T05:21:40;33.97;;;12.02;;
56242;SDS011;42155;53.096;23.226;2022-12-11T05:23:40;29.10;;;11.50;;
56242;SDS011;42155;53.096;23.226;2022-12-11T05:25:41;29.92;;;10.88;;
56242;SDS011;42155;53.096;23.226;2022-12-11T05:27:41;30.23;;;11.68;;
56242;SDS011;42155;53.096;23.226;2022-12-11T05:29:41;26.48;;;10.70;;
56242;SDS011;42155;53.096;23.226;2022-12-11T05:31:42;26.55;;;9.68;;
56242;SDS011;42155;53.096;23.226;2022-12-11T05:33:43;24.80;;;9.90;;
56242;SDS011;42155;53.096;23.226;2022-12-11T05:35:47;27.83;;;10.85;;
56242;SDS011;42155;53.096;23.226;2022-12-11T05:37:47;33.00;;;11.85;;
56242;SDS011;42155;53.096;23.226;2022-12-11T05:39:47;31.65;;;11.70;;
56242;SDS011;42155;53.096;23.226;2022-12-11T05:41:48;34.03;;;12.93;;
56242;SDS011;42155;53.096;23.226;2022-12-11T05:43:48;29.10;;;12.35;;
56242;SDS011;42155;53.096;23.226;2022-12-11T05:45:49;34.67;;;11.73;;
56242;SDS011;42155;53.096;23.226;2022-12-11T05:47:49;31.25;;;11.32;;
56242;SDS011;42155;53.096;23.226;2022-12-11T05:49:50;34.28;;;11.63;;
56242;SDS011;42155;53.096;23.226;2022-12-11T05:51:50;28.85;;;11.90;;
56242;SDS011;42155;53.096;23.226;2022-12-11T05:53:51;26.63;;;11.32;;
56242;SDS011;42155;53.096;23.226;2022-12-11T05:55:52;36.28;;;12.32;;
56242;SDS011;42155;53.096;23.226;2022-12-11T05:57:53;35.10;;;13.43;;
56242;SDS011;42155;53.096;23.226;2022-12-11T05:59:53;39.15;;;12.25;;
56242;SDS011;42155;53.096;23.226;2022-12-11T06:01:54;33.90;;;12.20;;
56242;SDS011;42155;53.096;23.226;2022-12-11T06:03:54;38.28;;;13.40;;
56242;SDS011;42155;53.096;23.226;2022-12-11T06:05:55;31.88;;;12.82;;
56242;SDS011;42155;53.096;23.226;2022-12-11T06:07:56;33.95;;;11.57;;
56242;SDS011;42155;53.096;23.226;2022-12-11T06:09:56;23.35;;;8.50;;
56242;SDS011;42155;53.096;23.226;2022-12-11T06:11:56;31.50;;;12.70;;
56242;SDS011;42155;53.096;23.226;2022-12-11T06:13:57;26.95;;;10.88;;
56242;SDS011;42155;53.096;23.226;2022-12-11T06:16:01;29.25;;;11.23;;
56242;SDS011;42155;53.096;23.226;2022-12-11T06:18:03;33.65;;;12.23;;
56242;SDS011;42155;53.096;23.226;2022-12-11T06:20:04;28.85;;;11.50;;
56242;SDS011;42155;53.096;23.226;2022-12-11T06:22:05;34.80;;;12.48;;
56242;SDS011;42155;53.096;23.226;2022-12-11T06:24:06;29.58;;;11.77;;
56242;SDS011;42155;53.096;23.226;2022-12-11T06:26:07;22.95;;;9.40;;
56242;SDS011;42155;53.096;23.226;2022-12-11T06:28:08;38.35;;;13.63;;
56242;SDS011;42155;53.096;23.226;2022-12-11T06:30:08;31.55;;;12.75;;
56242;SDS011;42155;53.096;23.226;2022-12-11T06:32:09;37.55;;;12.95;;
56242;SDS011;42155;53.096;23.226;2022-12-11T06:34:10;43.28;;;13.88;;
56242;SDS011;42155;53.096;23.226;2022-12-11T06:36:12;41.00;;;13.55;;
56242;SDS011;42155;53.096;23.226;2022-12-11T06:38:14;40.97;;;13.40;;
56242;SDS011;42155;53.096;23.226;2022-12-11T06:40:14;50.22;;;16.98;;
56242;SDS011;42155;53.096;23.226;2022-12-11T06:42:15;44.55;;;14.73;;
56242;SDS011;42155;53.096;23.226;2022-12-11T06:44:15;49.03;;;16.40;;
56242;SDS011;42155;53.096;23.226;2022-12-11T06:46:16;39.13;;;13.05;;
56242;SDS011;42155;53.096;23.226;2022-12-11T06:48:19;43.95;;;13.60;;
56242;SDS011;42155;53.096;23.226;2022-12-11T06:50:19;51.58;;;16.95;;
56242;SDS011;42155;53.096;23.226;2022-12-11T06:52:23;50.17;;;17.42;;
56242;SDS011;42155;53.096;23.226;2022-12-11T06:54:24;36.42;;;13.30;;
56242;SDS011;42155;53.096;23.226;2022-12-11T06:56:25;52.08;;;15.98;;
56242;SDS011;42155;53.096;23.226;2022-12-11T06:58:25;30.20;;;11.50;;
56242;SDS011;42155;53.096;23.226;2022-12-11T07:00:26;51.90;;;17.83;;
56242;SDS011;42155;53.096;23.226;2022-12-11T07:02:26;45.20;;;15.38;;
56242;SDS011;42155;53.096;23.226;2022-12-11T07:04:27;44.70;;;16.30;;
56242;SDS011;42155;53.096;23.226;2022-12-11T07:06:27;47.33;;;17.77;;
56242;SDS011;42155;53.096;23.226;2022-12-11T07:08:28;45.83;;;16.25;;
56242;SDS011;42155;53.096;23.226;2022-12-11T07:10:28;46.92;;;17.52;;
56242;SDS011;42155;53.096;23.226;2022-12-11T07:12:29;52.95;;;16.73;;
56242;SDS011;42155;53.096;23.226;2022-12-11T07:14:29;55.55;;;19.30;;
56242;SDS011;42155;53.096;23.226;2022-12-11T07:16:30;53.75;;;17.60;;
56242;SDS011;42155;53.096;23.226;2022-12-11T07:18:30;52.47;;;17.23;;
56242;SDS011;42155;53.096;23.226;2022-12-11T07:20:31;46.58;;;16.70;;
56242;SDS011;42155;53.096;23.226;2022-12-11T07:22:31;61.03;;;20.38;;
56242;SDS011;42155;53.096;23.226;2022-12-11T07:24:31;59.85;;;18.20;;
56242;SDS011;42155;53.096;23.226;2022-12-11T07:26:32;53.28;;;18.77;;
56242;SDS011;42155;53.096;23.226;2022-12-11T07:28:32;54.63;;;19.73;;
56242;SDS011;42155;53.096;23.226;2022-12-11T07:30:33;44.10;;;15.63;;
56242;SDS011;42155;53.096;23.226;2022-12-11T07:32:33;58.90;;;17.40;;
56242;SDS011;42155;53.096;23.226;2022-12-11T07:34:33;62.72;;;20.17;;
56242;SDS011;42155;53.096;23.226;2022-12-11T07:36:34;62.53;;;19.42;;
56242;SDS011;42155;53.096;23.226;2022-12-11T07:38:34;61.42;;;19.23;;
56242;SDS011;42155;53.096;23.226;2022-12-11T07:40:35;53.28;;;17.70;;
56242;SDS011;42155;53.096;23.226;2022-12-11T07:42:35;57.25;;;20.08;;
56242;SDS011;42155;53.096;23.226;2022-12-11T07:44:36;57.30;;;18.83;;
56242;SDS011;42155;53.096;23.226;2022-12-11T07:46:36;48.95;;;14.35;;
56242;SDS011;42155;53.096;23.226;2022-12-11T07:48:37;54.88;;;19.27;;
56242;SDS011;42155;53.096;23.226;2022-12-11T07:50:39;58.92;;;17.52;;
56242;SDS011;42155;53.096;23.226;2022-12-11T07:52:39;58.70;;;18.48;;
56242;SDS011;42155;53.096;23.226;2022-12-11T07:54:40;47.33;;;13.80;;
56242;SDS011;42155;53.096;23.226;2022-12-11T07:56:40;53.70;;;17.73;;
56242;SDS011;42155;53.096;23.226;2022-12-11T07:58:44;38.53;;;13.30;;
56242;SDS011;42155;53.096;23.226;2022-12-11T08:00:45;62.63;;;18.83;;
56242;SDS011;42155;53.096;23.226;2022-12-11T08:02:45;45.20;;;15.55;;
56242;SDS011;42155;53.096;23.226;2022-12-11T08:04:46;49.45;;;14.85;;
56242;SDS011;42155;53.096;23.226;2022-12-11T08:06:46;40.50;;;15.07;;
56242;SDS011;42155;53.096;23.226;2022-12-11T08:08:46;43.55;;;14.55;;
56242;SDS011;42155;53.096;23.226;2022-12-11T08:10:47;37.33;;;14.35;;
56242;SDS011;42155;53.096;23.226;2022-12-11T08:12:47;35.05;;;13.07;;
56242;SDS011;42155;53.096;23.226;2022-12-11T08:14:47;39.28;;;14.07;;
56242;SDS011;42155;53.096;23.226;2022-12-11T08:16:48;48.83;;;15.63;;
56242;SDS011;42155;53.096;23.226;2022-12-11T08:18:48;38.05;;;14.90;;
56242;SDS011;42155;53.096;23.226;2022-12-11T08:20:49;27.13;;;11.05;;
56242;SDS011;42155;53.096;23.226;2022-12-11T08:22:49;38.97;;;13.45;;
56242;SDS011;42155;53.096;23.226;2022-12-11T08:24:49;23.75;;;10.10;;
56242;SDS011;42155;53.096;23.226;2022-12-11T08:26:50;35.33;;;13.70;;
56242;SDS011;42155;53.096;23.226;2022-12-11T08:28:50;37.75;;;14.63;;
56242;SDS011;42155;53.096;23.226;2022-12-11T08:30:51;23.60;;;10.70;;
56242;SDS011;42155;53.096;23.226;2022-12-11T08:32:51;25.40;;;11.15;;
56242;SDS011;42155;53.096;23.226;2022-12-11T08:34:51;28.90;;;11.48;;
56242;SDS011;42155;53.096;23.226;2022-12-11T08:36:52;28.95;;;12.15;;
56242;SDS011;42155;53.096;23.226;2022-12-11T08:38:53;25.08;;;10.43;;
56242;SDS011;42155;53.096;23.226;2022-12-11T08:40:54;21.00;;;9.02;;
56242;SDS011;42155;53.096;23.226;2022-12-11T08:42:55;20.55;;;8.98;;
56242;SDS011;42155;53.096;23.226;2022-12-11T08:44:55;30.23;;;11.40;;
56242;SDS011;42155;53.096;23.226;2022-12-11T08:46:55;31.88;;;12.07;;
56242;SDS011;42155;53.096;23.226;2022-12-11T08:48:56;27.98;;;11.38;;
56242;SDS011;42155;53.096;23.226;2022-12-11T08:51:00;21.05;;;9.00;;
56242;SDS011;42155;53.096;23.226;2022-12-11T08:53:02;17.35;;;8.43;;
56242;SDS011;42155;53.096;23.226;2022-12-11T08:55:02;17.58;;;7.50;;
56242;SDS011;42155;53.096;23.226;2022-12-11T08:57:03;31.95;;;11.85;;
56242;SDS011;42155;53.096;23.226;2022-12-11T08:59:03;18.35;;;8.88;;
56242;SDS011;42155;53.096;23.226;2022-12-11T09:01:05;19.35;;;8.95;;
56242;SDS011;42155;53.096;23.226;2022-12-11T09:03:07;23.02;;;9.57;;
56242;SDS011;42155;53.096;23.226;2022-12-11T09:05:08;19.98;;;8.95;;
56242;SDS011;42155;53.096;23.226;2022-12-11T09:07:08;23.02;;;10.10;;
56242;SDS011;42155;53.096;23.226;2022-12-11T09:09:08;27.08;;;9.73;;
56242;SDS011;42155;53.096;23.226;2022-12-11T09:11:12;16.35;;;7.97;;
56242;SDS011;42155;53.096;23.226;2022-12-11T09:13:15;20.58;;;9.02;;
56242;SDS011;42155;53.096;23.226;2022-12-11T09:15:16;20.88;;;8.52;;
56242;SDS011;42155;53.096;23.226;2022-12-11T09:17:16;14.85;;;6.88;;
56242;SDS011;42155;53.096;23.226;2022-12-11T09:19:16;22.13;;;8.77;;
56242;SDS011;42155;53.096;23.226;2022-12-11T09:21:18;19.95;;;8.55;;
56242;SDS011;42155;53.096;23.226;2022-12-11T09:23:21;21.50;;;8.45;;
56242;SDS011;42155;53.096;23.226;2022-12-11T09:25:21;18.35;;;8.43;;
56242;SDS011;42155;53.096;23.226;2022-12-11T09:27:21;21.02;;;9.25;;
56242;SDS011;42155;53.096;23.226;2022-12-11T09:29:21;16.58;;;6.78;;
56242;SDS011;42155;53.096;23.226;2022-12-11T09:31:26;15.02;;;5.68;;
56242;SDS011;42155;53.096;23.226;2022-12-11T09:33:28;18.77;;;7.32;;
56242;SDS011;42155;53.096;23.226;2022-12-11T09:35:28;13.20;;;6.55;;
56242;SDS011;42155;53.096;23.226;2022-12-11T09:37:28;16.95;;;7.40;;
56242;SDS011;42155;53.096;23.226;2022-12-11T09:39:29;18.42;;;8.02;;
56242;SDS011;42155;53.096;23.226;2022-12-11T09:43:47;16.05;;;7.30;;
56242;SDS011;42155;53.096;23.226;2022-12-11T09:45:53;14.30;;;6.13;;
56242;SDS011;42155;53.096;23.226;2022-12-11T09:47:54;15.95;;;7.38;;
56242;SDS011;42155;53.096;23.226;2022-12-11T09:49:57;20.60;;;7.82;;
56242;SDS011;42155;53.096;23.226;2022-12-11T09:52:13;13.40;;;6.15;;
56242;SDS011;42155;53.096;23.226;2022-12-11T09:54:17;10.70;;;5.22;;
56242;SDS011;42155;53.096;23.226;2022-12-11T09:56:24;17.95;;;7.95;;
56242;SDS011;42155;53.096;23.226;2022-12-11T10:03:30;16.02;;;7.40;;
56242;SDS011;42155;53.096;23.226;2022-12-11T10:06:06;15.80;;;7.15;;
56242;SDS011;42155;53.096;23.226;2022-12-11T10:08:20;14.68;;;6.47;;
56242;SDS011;42155;53.096;23.226;2022-12-11T10:10:42;11.65;;;5.35;;
56242;SDS011;42155;53.096;23.226;2022-12-11T10:17:52;17.08;;;7.97;;
56242;SDS011;42155;53.096;23.226;2022-12-11T10:19:55;14.73;;;6.38;;
56242;SDS011;42155;53.096;23.226;2022-12-11T10:21:59;15.48;;;5.63;;
56242;SDS011;42155;53.096;23.226;2022-12-11T10:24:01;19.02;;;7.40;;
56242;SDS011;42155;53.096;23.226;2022-12-11T10:26:06;16.85;;;7.13;;
56242;SDS011;42155;53.096;23.226;2022-12-11T10:28:11;16.63;;;7.78;;
56242;SDS011;42155;53.096;23.226;2022-12-11T10:30:21;12.48;;;5.95;;
56242;SDS011;42155;53.096;23.226;2022-12-11T10:32:26;11.20;;;4.85;;
56242;SDS011;42155;53.096;23.226;2022-12-11T10:34:39;19.23;;;8.55;;
56242;SDS011;42155;53.096;23.226;2022-12-11T10:36:46;14.43;;;7.10;;
56242;SDS011;42155;53.096;23.226;2022-12-11T10:38:46;17.52;;;7.97;;
56242;SDS011;42155;53.096;23.226;2022-12-11T10:40:51;12.00;;;6.10;;
56242;SDS011;42155;53.096;23.226;2022-12-11T10:42:54;10.68;;;5.40;;
56242;SDS011;42155;53.096;23.226;2022-12-11T10:44:59;14.65;;;6.15;;
56242;SDS011;42155;53.096;23.226;2022-12-11T10:49:26;15.77;;;6.35;;
56242;SDS011;42155;53.096;23.226;2022-12-11T10:53:30;16.33;;;5.55;;
56242;SDS011;42155;53.096;23.226;2022-12-11T10:55:37;16.10;;;6.43;;
56242;SDS011;42155;53.096;23.226;2022-12-11T10:57:43;11.68;;;4.90;;
56242;SDS011;42155;53.096;23.226;2022-12-11T10:59:45;15.00;;;6.55;;
56242;SDS011;42155;53.096;23.226;2022-12-11T11:01:48;15.68;;;5.38;;
56242;SDS011;42155;53.096;23.226;2022-12-11T11:06:03;10.88;;;5.28;;
56242;SDS011;42155;53.096;23.226;2022-12-11T11:10:16;9.43;;;5.25;;
56242;SDS011;42155;53.096;23.226;2022-12-11T11:12:18;14.23;;;5.72;;
56242;SDS011;42155;53.096;23.226;2022-12-11T11:14:21;10.93;;;5.15;;
56242;SDS011;42155;53.096;23.226;2022-12-11T11:16:21;7.88;;;4.13;;
56242;SDS011;42155;53.096;23.226;2022-12-11T11:18:23;11.93;;;5.28;;
56242;SDS011;42155;53.096;23.226;2022-12-11T11:20:29;10.82;;;5.28;;
56242;SDS011;42155;53.096;23.226;2022-12-11T11:22:30;8.73;;;4.55;;
56242;SDS011;42155;53.096;23.226;2022-12-11T11:26:34;15.43;;;5.97;;
56242;SDS011;42155;53.096;23.226;2022-12-11T11:28:41;19.17;;;6.70;;
56242;SDS011;42155;53.096;23.226;2022-12-11T11:31:01;14.48;;;6.47;;
56242;SDS011;42155;53.096;23.226;2022-12-11T11:33:04;14.98;;;6.18;;
56242;SDS011;42155;53.096;23.226;2022-12-11T11:35:18;11.50;;;5.60;;
56242;SDS011;42155;53.096;23.226;2022-12-11T11:37:40;10.95;;;5.25;;
56242;SDS011;42155;53.096;23.226;2022-12-11T11:39:43;12.15;;;5.50;;
56242;SDS011;42155;53.096;23.226;2022-12-11T11:43:55;14.68;;;6.60;;
56242;SDS011;42155;53.096;23.226;2022-12-11T11:48:27;11.77;;;5.43;;
56242;SDS011;42155;53.096;23.226;2022-12-11T11:50:35;12.73;;;5.30;;
56242;SDS011;42155;53.096;23.226;2022-12-11T11:52:41;13.60;;;5.38;;
56242;SDS011;42155;53.096;23.226;2022-12-11T11:54:48;11.18;;;4.78;;
56242;SDS011;42155;53.096;23.226;2022-12-11T11:56:57;11.88;;;5.20;;
56242;SDS011;42155;53.096;23.226;2022-12-11T11:59:13;8.13;;;4.65;;
56242;SDS011;42155;53.096;23.226;2022-12-11T12:01:23;13.77;;;5.40;;
56242;SDS011;42155;53.096;23.226;2022-12-11T12:03:24;13.00;;;5.43;;
56242;SDS011;42155;53.096;23.226;2022-12-11T12:05:49;11.55;;;5.38;;
56242;SDS011;42155;53.096;23.226;2022-12-11T12:10:28;9.85;;;4.45;;
56242;SDS011;42155;53.096;23.226;2022-12-11T12:17:25;14.05;;;4.95;;
56242;SDS011;42155;53.096;23.226;2022-12-11T12:22:15;9.77;;;3.97;;
56242;SDS011;42155;53.096;23.226;2022-12-11T12:24:23;7.28;;;2.90;;
56242;SDS011;42155;53.096;23.226;2022-12-11T12:26:36;8.23;;;4.15;;
56242;SDS011;42155;53.096;23.226;2022-12-11T12:38:16;12.57;;;5.35;;
56242;SDS011;42155;53.096;23.226;2022-12-11T12:45:25;11.60;;;4.90;;
56242;SDS011;42155;53.096;23.226;2022-12-11T12:47:30;8.18;;;4.00;;
56242;SDS011;42155;53.096;23.226;2022-12-11T12:51:44;9.23;;;4.50;;
56242;SDS011;42155;53.096;23.226;2022-12-11T12:53:48;10.82;;;4.80;;
56242;SDS011;42155;53.096;23.226;2022-12-11T12:56:02;6.10;;;3.35;;
56242;SDS011;42155;53.096;23.226;2022-12-11T12:58:05;12.02;;;5.68;;